sensor_id;sensor_type;location;lat;lon;timestamp;temperature;humidity
16974;DHT22;8603;46.944;7.412;2022-09-27T00:02:06;10.00;99.90
16974;DHT22;8603;46.944;7.412;2022-09-27T00:04:32;10.00;99.90
16974;DHT22;8603;46.944;7.412;2022-09-27T00:06:58;10.00;99.90
16974;DHT22;8603;46.944;7.412;2022-09-27T00:09:24;10.00;99.90
16974;DHT22;8603;46.944;7.412;2022-09-27T00:11:50;10.10;99.90
16974;DHT22;8603;46.944;7.412;2022-09-27T00:14:16;10.10;99.90
16974;DHT22;8603;46.944;7.412;2022-09-27T00:16:43;10.10;99.90
16974;DHT22;8603;46.944;7.412;2022-09-27T00:19:17;10.00;99.90
16974;DHT22;8603;46.944;7.412;2022-09-27T00:21:44;10.10;99.90
16974;DHT22;8603;46.944;7.412;2022-09-27T00:24:18;10.10;99.90
16974;DHT22;8603;46.944;7.412;2022-09-27T00:26:44;10.20;99.90
16974;DHT22;8603;46.944;7.412;2022-09-27T00:29:11;10.20;99.90
16974;DHT22;8603;46.944;7.412;2022-09-27T00:31:37;10.20;99.90
16974;DHT22;8603;46.944;7.412;2022-09-27T00:34:04;10.30;99.90
16974;DHT22;8603;46.944;7.412;2022-09-27T00:36:31;10.30;99.90
16974;DHT22;8603;46.944;7.412;2022-09-27T00:38:58;10.30;99.90
16974;DHT22;8603;46.944;7.412;2022-09-27T00:41:32;10.40;99.90
16974;DHT22;8603;46.944;7.412;2022-09-27T00:44:01;10.30;99.90
16974;DHT22;8603;46.944;7.412;2022-09-27T00:46:47;10.30;99.90
16974;DHT22;8603;46.944;7.412;2022-09-27T00:52:03;10.20;99.90
16974;DHT22;8603;46.944;7.412;2022-09-27T00:54:32;10.20;99.90
16974;DHT22;8603;46.944;7.412;2022-09-27T00:56:59;10.10;99.90
16974;DHT22;8603;46.944;7.412;2022-09-27T01:01:50;10.20;99.90
16974;DHT22;8603;46.944;7.412;2022-09-27T01:04:20;10.20;99.90
16974;DHT22;8603;46.944;7.412;2022-09-27T01:06:52;10.10;99.90
16974;DHT22;8603;46.944;7.412;2022-09-27T01:09:19;10.10;99.90
16974;DHT22;8603;46.944;7.412;2022-09-27T01:37:04;10.00;99.90
16974;DHT22;8603;46.944;7.412;2022-09-27T01:42:13;10.10;99.90
16974;DHT22;8603;46.944;7.412;2022-09-27T01:47:16;10.20;99.90
16974;DHT22;8603;46.944;7.412;2022-09-27T01:49:56;10.30;99.90
16974;DHT22;8603;46.944;7.412;2022-09-27T01:52:40;10.30;99.90
16974;DHT22;8603;46.944;7.412;2022-09-27T01:55:11;10.30;99.90
16974;DHT22;8603;46.944;7.412;2022-09-27T01:57:41;10.30;99.90
16974;DHT22;8603;46.944;7.412;2022-09-27T02:00:10;10.40;99.90
16974;DHT22;8603;46.944;7.412;2022-09-27T02:02:41;10.30;99.90
16974;DHT22;8603;46.944;7.412;2022-09-27T02:05:10;10.30;99.90
16974;DHT22;8603;46.944;7.412;2022-09-27T02:07:52;10.40;99.90
16974;DHT22;8603;46.944;7.412;2022-09-27T02:10:26;10.50;99.90
16974;DHT22;8603;46.944;7.412;2022-09-27T02:13:18;10.60;99.90
16974;DHT22;8603;46.944;7.412;2022-09-27T02:15:59;10.50;99.90
16974;DHT22;8603;46.944;7.412;2022-09-27T02:21:18;10.60;99.90
16974;DHT22;8603;46.944;7.412;2022-09-27T02:23:55;10.60;99.90
16974;DHT22;8603;46.944;7.412;2022-09-27T02:26:36;10.50;99.90
16974;DHT22;8603;46.944;7.412;2022-09-27T02:29:09;10.50;99.90
16974;DHT22;8603;46.944;7.412;2022-09-27T02:31:36;10.50;99.90
16974;DHT22;8603;46.944;7.412;2022-09-27T02:34:12;10.60;99.90
16974;DHT22;8603;46.944;7.412;2022-09-27T02:36:40;10.60;99.90
16974;DHT22;8603;46.944;7.412;2022-09-27T02:39:06;10.60;99.90
16974;DHT22;8603;46.944;7.412;2022-09-27T02:41:32;10.60;99.90
16974;DHT22;8603;46.944;7.412;2022-09-27T02:44:04;10.60;99.90
16974;DHT22;8603;46.944;7.412;2022-09-27T02:49:43;10.60;99.90
16974;DHT22;8603;46.944;7.412;2022-09-27T02:55:31;10.50;99.90
16974;DHT22;8603;46.944;7.412;2022-09-27T03:04:22;9.70;99.90
16974;DHT22;8603;46.944;7.412;2022-09-27T03:06:50;9.50;99.90
16974;DHT22;8603;46.944;7.412;2022-09-27T03:09:23;9.40;99.90
16974;DHT22;8603;46.944;7.412;2022-09-27T03:11:49;9.30;99.90
16974;DHT22;8603;46.944;7.412;2022-09-27T03:14:15;9.30;99.90
16974;DHT22;8603;46.944;7.412;2022-09-27T03:16:41;9.20;99.90
16974;DHT22;8603;46.944;7.412;2022-09-27T03:19:08;9.30;99.90
16974;DHT22;8603;46.944;7.412;2022-09-27T03:21:34;9.30;99.90
16974;DHT22;8603;46.944;7.412;2022-09-27T03:24:00;9.30;99.90
16974;DHT22;8603;46.944;7.412;2022-09-27T03:26:25;9.40;99.90
16974;DHT22;8603;46.944;7.412;2022-09-27T03:28:51;9.40;99.90
16974;DHT22;8603;46.944;7.412;2022-09-27T03:31:17;9.40;99.90
16974;DHT22;8603;46.944;7.412;2022-09-27T03:33:43;9.50;99.90
16974;DHT22;8603;46.944;7.412;2022-09-27T03:36:09;9.50;99.90
16974;DHT22;8603;46.944;7.412;2022-09-27T03:38:36;9.50;99.90
16974;DHT22;8603;46.944;7.412;2022-09-27T03:41:02;9.50;99.90
16974;DHT22;8603;46.944;7.412;2022-09-27T03:43:28;9.50;99.90
16974;DHT22;8603;46.944;7.412;2022-09-27T03:45:53;9.40;99.90
16974;DHT22;8603;46.944;7.412;2022-09-27T03:48:19;9.40;99.90
16974;DHT22;8603;46.944;7.412;2022-09-27T03:50:44;9.40;99.90
16974;DHT22;8603;46.944;7.412;2022-09-27T03:53:10;9.40;99.90
16974;DHT22;8603;46.944;7.412;2022-09-27T03:55:35;9.30;99.90
16974;DHT22;8603;46.944;7.412;2022-09-27T03:58:01;9.30;99.90
16974;DHT22;8603;46.944;7.412;2022-09-27T04:00:27;9.20;99.90
16974;DHT22;8603;46.944;7.412;2022-09-27T04:02:53;9.20;99.90
16974;DHT22;8603;46.944;7.412;2022-09-27T04:05:18;9.10;99.90
16974;DHT22;8603;46.944;7.412;2022-09-27T04:07:47;9.10;99.90
16974;DHT22;8603;46.944;7.412;2022-09-27T04:10:14;9.00;99.90
16974;DHT22;8603;46.944;7.412;2022-09-27T04:12:40;8.90;99.90
16974;DHT22;8603;46.944;7.412;2022-09-27T04:15:06;8.90;99.90
16974;DHT22;8603;46.944;7.412;2022-09-27T04:17:33;8.80;99.90
16974;DHT22;8603;46.944;7.412;2022-09-27T04:19:58;8.80;99.90
16974;DHT22;8603;46.944;7.412;2022-09-27T04:22:24;8.70;99.90
16974;DHT22;8603;46.944;7.412;2022-09-27T04:24:50;8.70;99.90
16974;DHT22;8603;46.944;7.412;2022-09-27T04:27:15;8.70;99.90
16974;DHT22;8603;46.944;7.412;2022-09-27T04:29:41;8.70;99.90
16974;DHT22;8603;46.944;7.412;2022-09-27T04:32:10;8.70;99.90
16974;DHT22;8603;46.944;7.412;2022-09-27T04:34:36;8.80;99.90
16974;DHT22;8603;46.944;7.412;2022-09-27T04:37:20;8.80;99.90
16974;DHT22;8603;46.944;7.412;2022-09-27T04:39:49;8.90;99.90
16974;DHT22;8603;46.944;7.412;2022-09-27T04:42:15;8.80;99.90
16974;DHT22;8603;46.944;7.412;2022-09-27T04:44:41;8.90;99.90
16974;DHT22;8603;46.944;7.412;2022-09-27T04:47:06;8.70;99.90
16974;DHT22;8603;46.944;7.412;2022-09-27T04:49:32;8.70;99.90
16974;DHT22;8603;46.944;7.412;2022-09-27T04:51:58;8.70;99.90
16974;DHT22;8603;46.944;7.412;2022-09-27T04:54:23;8.70;99.90
16974;DHT22;8603;46.944;7.412;2022-09-27T04:56:49;8.80;99.90
16974;DHT22;8603;46.944;7.412;2022-09-27T04:59:19;8.70;99.90
16974;DHT22;8603;46.944;7.412;2022-09-27T05:01:45;8.70;99.90
16974;DHT22;8603;46.944;7.412;2022-09-27T05:04:19;8.70;99.90
16974;DHT22;8603;46.944;7.412;2022-09-27T05:06:48;8.70;99.90
16974;DHT22;8603;46.944;7.412;2022-09-27T05:09:20;8.50;99.90
16974;DHT22;8603;46.944;7.412;2022-09-27T05:11:46;8.40;99.90
16974;DHT22;8603;46.944;7.412;2022-09-27T05:14:16;8.20;99.90
16974;DHT22;8603;46.944;7.412;2022-09-27T05:16:45;8.20;99.90
16974;DHT22;8603;46.944;7.412;2022-09-27T05:19:15;8.10;99.90
16974;DHT22;8603;46.944;7.412;2022-09-27T05:21:57;8.10;99.90
16974;DHT22;8603;46.944;7.412;2022-09-27T05:24:23;8.10;99.90
16974;DHT22;8603;46.944;7.412;2022-09-27T05:26:52;8.20;99.90
16974;DHT22;8603;46.944;7.412;2022-09-27T05:29:18;8.10;99.90
16974;DHT22;8603;46.944;7.412;2022-09-27T05:31:44;8.20;99.90
16974;DHT22;8603;46.944;7.412;2022-09-27T05:34:10;8.10;99.90
16974;DHT22;8603;46.944;7.412;2022-09-27T05:36:49;8.10;99.90
16974;DHT22;8603;46.944;7.412;2022-09-27T05:39:18;8.20;99.90
16974;DHT22;8603;46.944;7.412;2022-09-27T05:41:53;8.30;99.90
16974;DHT22;8603;46.944;7.412;2022-09-27T05:44:21;8.20;99.90
16974;DHT22;8603;46.944;7.412;2022-09-27T05:46:48;8.40;99.90
16974;DHT22;8603;46.944;7.412;2022-09-27T05:49:13;8.50;99.90
16974;DHT22;8603;46.944;7.412;2022-09-27T05:51:39;8.60;99.90
16974;DHT22;8603;46.944;7.412;2022-09-27T05:54:14;8.70;99.90
16974;DHT22;8603;46.944;7.412;2022-09-27T05:56:42;8.80;99.90
16974;DHT22;8603;46.944;7.412;2022-09-27T05:59:07;8.90;99.90
16974;DHT22;8603;46.944;7.412;2022-09-27T06:01:33;8.90;99.90
16974;DHT22;8603;46.944;7.412;2022-09-27T06:04:01;9.10;99.90
16974;DHT22;8603;46.944;7.412;2022-09-27T06:06:27;9.20;99.90
16974;DHT22;8603;46.944;7.412;2022-09-27T06:08:52;9.40;99.90
16974;DHT22;8603;46.944;7.412;2022-09-27T06:11:21;9.40;99.90
16974;DHT22;8603;46.944;7.412;2022-09-27T06:13:52;9.40;99.90
16974;DHT22;8603;46.944;7.412;2022-09-27T06:16:17;9.50;99.90
16974;DHT22;8603;46.944;7.412;2022-09-27T06:18:43;9.50;99.90
16974;DHT22;8603;46.944;7.412;2022-09-27T06:21:17;9.60;99.90
16974;DHT22;8603;46.944;7.412;2022-09-27T06:23:42;9.60;99.90
16974;DHT22;8603;46.944;7.412;2022-09-27T06:26:08;9.60;99.90
16974;DHT22;8603;46.944;7.412;2022-09-27T06:28:37;9.70;99.90
16974;DHT22;8603;46.944;7.412;2022-09-27T06:31:07;9.90;99.90
16974;DHT22;8603;46.944;7.412;2022-09-27T06:34:03;10.00;99.90
16974;DHT22;8603;46.944;7.412;2022-09-27T06:36:28;10.20;99.90
16974;DHT22;8603;46.944;7.412;2022-09-27T06:38:54;10.30;99.90
16974;DHT22;8603;46.944;7.412;2022-09-27T06:41:19;10.30;99.90
16974;DHT22;8603;46.944;7.412;2022-09-27T06:43:47;10.50;99.90
16974;DHT22;8603;46.944;7.412;2022-09-27T06:46:16;10.60;99.90
16974;DHT22;8603;46.944;7.412;2022-09-27T06:48:42;10.50;99.90
16974;DHT22;8603;46.944;7.412;2022-09-27T06:51:07;10.70;99.90
16974;DHT22;8603;46.944;7.412;2022-09-27T06:53:33;10.90;99.90
16974;DHT22;8603;46.944;7.412;2022-09-27T06:56:00;11.10;99.90
16974;DHT22;8603;46.944;7.412;2022-09-27T06:58:29;11.30;99.90
16974;DHT22;8603;46.944;7.412;2022-09-27T07:01:20;11.40;99.90
16974;DHT22;8603;46.944;7.412;2022-09-27T07:03:49;11.50;99.90
16974;DHT22;8603;46.944;7.412;2022-09-27T07:13:29;13.10;99.90
16974;DHT22;8603;46.944;7.412;2022-09-27T07:18:54;13.10;99.90
16974;DHT22;8603;46.944;7.412;2022-09-27T07:52:59;13.80;99.90
16974;DHT22;8603;46.944;7.412;2022-09-27T07:55:58;14.80;99.90
16974;DHT22;8603;46.944;7.412;2022-09-27T08:06:01;16.60;99.90
16974;DHT22;8603;46.944;7.412;2022-09-27T08:32:15;17.10;99.90
16974;DHT22;8603;46.944;7.412;2022-09-27T08:49:01;15.40;99.90
16974;DHT22;8603;46.944;7.412;2022-09-27T08:52:30;15.30;99.90
16974;DHT22;8603;46.944;7.412;2022-09-27T08:55:35;14.80;99.90
16974;DHT22;8603;46.944;7.412;2022-09-27T08:58:48;14.60;99.90
16974;DHT22;8603;46.944;7.412;2022-09-27T09:05:33;14.50;99.90
16974;DHT22;8603;46.944;7.412;2022-09-27T09:37:49;14.40;99.90
16974;DHT22;8603;46.944;7.412;2022-09-27T09:40:38;14.40;99.90
16974;DHT22;8603;46.944;7.412;2022-09-27T09:43:34;14.40;99.90
16974;DHT22;8603;46.944;7.412;2022-09-27T09:46:47;14.20;99.90
16974;DHT22;8603;46.944;7.412;2022-09-27T09:49:42;13.80;99.90
16974;DHT22;8603;46.944;7.412;2022-09-27T09:55:48;13.30;99.90
16974;DHT22;8603;46.944;7.412;2022-09-27T09:58:56;13.20;99.90
16974;DHT22;8603;46.944;7.412;2022-09-27T10:01:43;13.20;99.90
16974;DHT22;8603;46.944;7.412;2022-09-27T10:07:40;12.60;99.90
16974;DHT22;8603;46.944;7.412;2022-09-27T10:10:20;12.20;99.90
16974;DHT22;8603;46.944;7.412;2022-09-27T10:12:56;11.90;99.90
16974;DHT22;8603;46.944;7.412;2022-09-27T10:15:28;11.70;99.90
16974;DHT22;8603;46.944;7.412;2022-09-27T10:18:20;11.40;99.90
16974;DHT22;8603;46.944;7.412;2022-09-27T10:21:44;11.40;99.90
16974;DHT22;8603;46.944;7.412;2022-09-27T10:24:51;11.70;99.90
16974;DHT22;8603;46.944;7.412;2022-09-27T10:34:15;13.10;99.90
16974;DHT22;8603;46.944;7.412;2022-09-27T10:39:48;13.80;99.90
16974;DHT22;8603;46.944;7.412;2022-09-27T11:07:17;14.50;99.90
16974;DHT22;8603;46.944;7.412;2022-09-27T11:46:44;15.30;99.90
16974;DHT22;8603;46.944;7.412;2022-09-27T11:59:08;14.40;99.90
16974;DHT22;8603;46.944;7.412;2022-09-27T12:01:50;14.40;99.90
16974;DHT22;8603;46.944;7.412;2022-09-27T12:07:58;14.20;99.90
16974;DHT22;8603;46.944;7.412;2022-09-27T12:10:18;14.20;99.90
16974;DHT22;8603;46.944;7.412;2022-09-27T12:12:50;14.30;99.90
16974;DHT22;8603;46.944;7.412;2022-09-27T12:15:35;14.30;99.90
16974;DHT22;8603;46.944;7.412;2022-09-27T12:18:37;14.30;99.90
16974;DHT22;8603;46.944;7.412;2022-09-27T12:21:08;14.20;99.90
16974;DHT22;8603;46.944;7.412;2022-09-27T12:23:41;14.30;99.90
16974;DHT22;8603;46.944;7.412;2022-09-27T12:26:19;14.20;99.90
16974;DHT22;8603;46.944;7.412;2022-09-27T12:28:51;14.10;99.90
16974;DHT22;8603;46.944;7.412;2022-09-27T12:34:39;13.70;99.90
16974;DHT22;8603;46.944;7.412;2022-09-27T12:39:52;13.60;99.90
16974;DHT22;8603;46.944;7.412;2022-09-27T12:42:36;13.40;99.90
16974;DHT22;8603;46.944;7.412;2022-09-27T12:45:03;13.50;99.90
16974;DHT22;8603;46.944;7.412;2022-09-27T12:48:16;13.50;99.90
16974;DHT22;8603;46.944;7.412;2022-09-27T12:51:20;13.50;99.90
16974;DHT22;8603;46.944;7.412;2022-09-27T13:02:25;14.00;99.90
16974;DHT22;8603;46.944;7.412;2022-09-27T13:05:28;14.30;99.90
16974;DHT22;8603;46.944;7.412;2022-09-27T13:13:54;14.70;99.90
16974;DHT22;8603;46.944;7.412;2022-09-27T13:16:23;14.70;99.90
16974;DHT22;8603;46.944;7.412;2022-09-27T13:18:59;14.70;99.90
16974;DHT22;8603;46.944;7.412;2022-09-27T13:21:52;14.60;99.90
16974;DHT22;8603;46.944;7.412;2022-09-27T13:24:45;14.60;99.90
16974;DHT22;8603;46.944;7.412;2022-09-27T13:36:05;14.50;99.90
16974;DHT22;8603;46.944;7.412;2022-09-27T13:38:31;14.40;99.90
16974;DHT22;8603;46.944;7.412;2022-09-27T13:41:17;14.30;99.90
16974;DHT22;8603;46.944;7.412;2022-09-27T13:44:02;14.20;99.90
16974;DHT22;8603;46.944;7.412;2022-09-27T13:46:32;14.10;99.90
16974;DHT22;8603;46.944;7.412;2022-09-27T13:49:04;14.00;99.90
16974;DHT22;8603;46.944;7.412;2022-09-27T13:51:42;13.90;99.90
16974;DHT22;8603;46.944;7.412;2022-09-27T13:54:39;14.00;99.90
16974;DHT22;8603;46.944;7.412;2022-09-27T13:58:21;14.00;99.90
16974;DHT22;8603;46.944;7.412;2022-09-27T14:00:21;14.00;99.90
16974;DHT22;8603;46.944;7.412;2022-09-27T14:02:57;13.80;99.90
16974;DHT22;8603;46.944;7.412;2022-09-27T14:08:54;13.60;99.90
16974;DHT22;8603;46.944;7.412;2022-09-27T14:12:11;13.60;99.90
16974;DHT22;8603;46.944;7.412;2022-09-27T14:14:38;13.50;99.90
16974;DHT22;8603;46.944;7.412;2022-09-27T14:17:12;13.50;99.90
16974;DHT22;8603;46.944;7.412;2022-09-27T14:20:00;13.50;99.90
16974;DHT22;8603;46.944;7.412;2022-09-27T14:22:28;13.50;99.90
16974;DHT22;8603;46.944;7.412;2022-09-27T14:25:20;13.40;99.90
16974;DHT22;8603;46.944;7.412;2022-09-27T14:28:01;13.50;99.90
16974;DHT22;8603;46.944;7.412;2022-09-27T14:30:34;13.70;99.90
16974;DHT22;8603;46.944;7.412;2022-09-27T14:33:03;13.70;99.90
16974;DHT22;8603;46.944;7.412;2022-09-27T14:35:47;13.80;99.90
16974;DHT22;8603;46.944;7.412;2022-09-27T14:38:38;13.80;99.90
16974;DHT22;8603;46.944;7.412;2022-09-27T14:41:35;13.80;99.90
16974;DHT22;8603;46.944;7.412;2022-09-27T14:44:20;13.90;99.90
16974;DHT22;8603;46.944;7.412;2022-09-27T14:47:22;13.80;99.90
16974;DHT22;8603;46.944;7.412;2022-09-27T14:49:51;13.70;99.90
16974;DHT22;8603;46.944;7.412;2022-09-27T14:52:20;13.70;99.90
16974;DHT22;8603;46.944;7.412;2022-09-27T14:55:05;13.60;99.90
16974;DHT22;8603;46.944;7.412;2022-09-27T14:57:35;13.50;99.90
16974;DHT22;8603;46.944;7.412;2022-09-27T15:00:23;13.30;99.90
16974;DHT22;8603;46.944;7.412;2022-09-27T15:03:07;13.10;99.90
16974;DHT22;8603;46.944;7.412;2022-09-27T15:05:46;13.00;99.90
16974;DHT22;8603;46.944;7.412;2022-09-27T15:08:12;12.80;99.90
16974;DHT22;8603;46.944;7.412;2022-09-27T15:10:40;12.70;99.90
16974;DHT22;8603;46.944;7.412;2022-09-27T15:13:15;12.60;99.90
16974;DHT22;8603;46.944;7.412;2022-09-27T15:15:43;12.60;99.90
16974;DHT22;8603;46.944;7.412;2022-09-27T15:18:31;12.50;99.90
16974;DHT22;8603;46.944;7.412;2022-09-27T15:21:05;12.50;99.90
16974;DHT22;8603;46.944;7.412;2022-09-27T15:23:45;12.40;99.90
16974;DHT22;8603;46.944;7.412;2022-09-27T15:26:15;12.50;99.90
16974;DHT22;8603;46.944;7.412;2022-09-27T15:28:44;12.50;99.90
16974;DHT22;8603;46.944;7.412;2022-09-27T15:31:30;12.40;99.90
16974;DHT22;8603;46.944;7.412;2022-09-27T15:33:57;12.40;99.90
16974;DHT22;8603;46.944;7.412;2022-09-27T15:39:18;12.40;99.90
16974;DHT22;8603;46.944;7.412;2022-09-27T15:42:16;12.40;99.90
16974;DHT22;8603;46.944;7.412;2022-09-27T15:44:50;12.40;99.90
16974;DHT22;8603;46.944;7.412;2022-09-27T15:52:54;12.30;99.90
16974;DHT22;8603;46.944;7.412;2022-09-27T15:55:23;12.30;99.90
16974;DHT22;8603;46.944;7.412;2022-09-27T15:58:19;12.30;99.90
16974;DHT22;8603;46.944;7.412;2022-09-27T16:01:03;12.30;99.90
16974;DHT22;8603;46.944;7.412;2022-09-27T16:03:32;12.30;99.90
16974;DHT22;8603;46.944;7.412;2022-09-27T16:05:59;12.30;99.90
16974;DHT22;8603;46.944;7.412;2022-09-27T16:08:33;12.10;99.90
16974;DHT22;8603;46.944;7.412;2022-09-27T16:11:08;12.00;99.90
16974;DHT22;8603;46.944;7.412;2022-09-27T16:14:01;11.90;99.90
16974;DHT22;8603;46.944;7.412;2022-09-27T16:16:39;11.80;99.90
16974;DHT22;8603;46.944;7.412;2022-09-27T16:19:20;11.80;99.90
16974;DHT22;8603;46.944;7.412;2022-09-27T16:21:51;11.80;99.90
16974;DHT22;8603;46.944;7.412;2022-09-27T16:24:18;11.80;99.90
16974;DHT22;8603;46.944;7.412;2022-09-27T16:26:49;11.70;99.90
16974;DHT22;8603;46.944;7.412;2022-09-27T16:29:22;11.60;99.90
16974;DHT22;8603;46.944;7.412;2022-09-27T16:31:53;11.50;99.90
16974;DHT22;8603;46.944;7.412;2022-09-27T16:34:45;11.40;99.90
16974;DHT22;8603;46.944;7.412;2022-09-27T16:37:10;11.30;99.90
16974;DHT22;8603;46.944;7.412;2022-09-27T16:40:14;11.30;99.90
16974;DHT22;8603;46.944;7.412;2022-09-27T16:42:43;11.30;99.90
16974;DHT22;8603;46.944;7.412;2022-09-27T16:45:11;11.30;99.90
16974;DHT22;8603;46.944;7.412;2022-09-27T16:47:54;11.20;99.90
16974;DHT22;8603;46.944;7.412;2022-09-27T16:50:31;11.30;99.90
16974;DHT22;8603;46.944;7.412;2022-09-27T16:53:21;11.20;99.90
16974;DHT22;8603;46.944;7.412;2022-09-27T16:55:47;11.00;99.90
16974;DHT22;8603;46.944;7.412;2022-09-27T16:58:36;11.00;99.90
16974;DHT22;8603;46.944;7.412;2022-09-27T17:01:15;10.90;99.90
16974;DHT22;8603;46.944;7.412;2022-09-27T17:06:32;10.70;99.90
16974;DHT22;8603;46.944;7.412;2022-09-27T17:15:30;10.60;99.90
16974;DHT22;8603;46.944;7.412;2022-09-27T18:19:21;10.30;99.90
16974;DHT22;8603;46.944;7.412;2022-09-27T18:21:47;10.30;99.90
16974;DHT22;8603;46.944;7.412;2022-09-27T18:24:17;10.20;99.90
16974;DHT22;8603;46.944;7.412;2022-09-27T18:26:45;10.00;99.90
16974;DHT22;8603;46.944;7.412;2022-09-27T18:29:24;10.10;99.90
16974;DHT22;8603;46.944;7.412;2022-09-27T18:31:56;10.10;99.90
16974;DHT22;8603;46.944;7.412;2022-09-27T18:34:22;10.10;99.90
16974;DHT22;8603;46.944;7.412;2022-09-27T18:36:52;10.20;99.90
16974;DHT22;8603;46.944;7.412;2022-09-27T18:39:27;10.30;99.90
16974;DHT22;8603;46.944;7.412;2022-09-27T18:45:18;10.30;99.90
16974;DHT22;8603;46.944;7.412;2022-09-27T18:47:48;10.30;99.90
16974;DHT22;8603;46.944;7.412;2022-09-27T18:50:20;10.40;99.90
16974;DHT22;8603;46.944;7.412;2022-09-27T18:52:54;10.40;99.90
16974;DHT22;8603;46.944;7.412;2022-09-27T18:59:09;10.40;99.90
16974;DHT22;8603;46.944;7.412;2022-09-27T19:01:40;10.60;99.90
16974;DHT22;8603;46.944;7.412;2022-09-27T19:07:12;10.60;99.90
16974;DHT22;8603;46.944;7.412;2022-09-27T19:10:10;10.60;99.90
16974;DHT22;8603;46.944;7.412;2022-09-27T19:13:10;10.60;99.90
16974;DHT22;8603;46.944;7.412;2022-09-27T19:15:57;10.60;99.90
16974;DHT22;8603;46.944;7.412;2022-09-27T19:18:52;10.60;99.90
16974;DHT22;8603;46.944;7.412;2022-09-27T19:24:26;10.40;99.90
16974;DHT22;8603;46.944;7.412;2022-09-27T19:26:52;10.50;99.90
16974;DHT22;8603;46.944;7.412;2022-09-27T19:29:20;10.50;99.90
16974;DHT22;8603;46.944;7.412;2022-09-27T19:31:45;10.40;99.90
16974;DHT22;8603;46.944;7.412;2022-09-27T19:34:11;10.50;99.90
16974;DHT22;8603;46.944;7.412;2022-09-27T19:36:37;10.50;99.90
16974;DHT22;8603;46.944;7.412;2022-09-27T19:39:04;10.50;99.90
16974;DHT22;8603;46.944;7.412;2022-09-27T19:41:32;10.50;99.90
16974;DHT22;8603;46.944;7.412;2022-09-27T19:44:12;10.50;99.90
16974;DHT22;8603;46.944;7.412;2022-09-27T19:46:40;10.50;99.90
16974;DHT22;8603;46.944;7.412;2022-09-27T19:49:12;10.50;99.90
16974;DHT22;8603;46.944;7.412;2022-09-27T19:51:37;10.50;99.90
16974;DHT22;8603;46.944;7.412;2022-09-27T19:54:26;10.50;99.90
16974;DHT22;8603;46.944;7.412;2022-09-27T19:56:51;10.40;99.90
16974;DHT22;8603;46.944;7.412;2022-09-27T19:59:43;10.40;99.90
16974;DHT22;8603;46.944;7.412;2022-09-27T20:02:09;10.40;99.90
16974;DHT22;8603;46.944;7.412;2022-09-27T20:04:38;10.50;99.90
16974;DHT22;8603;46.944;7.412;2022-09-27T20:07:03;10.50;99.90
16974;DHT22;8603;46.944;7.412;2022-09-27T20:09:35;10.50;99.90
16974;DHT22;8603;46.944;7.412;2022-09-27T20:12:03;10.50;99.90
16974;DHT22;8603;46.944;7.412;2022-09-27T20:14:35;10.40;99.90
16974;DHT22;8603;46.944;7.412;2022-09-27T20:17:12;10.40;99.90
16974;DHT22;8603;46.944;7.412;2022-09-27T20:19:37;10.40;99.90
16974;DHT22;8603;46.944;7.412;2022-09-27T20:22:05;10.50;99.90
16974;DHT22;8603;46.944;7.412;2022-09-27T20:24:31;10.50;99.90
16974;DHT22;8603;46.944;7.412;2022-09-27T20:27:05;10.50;99.90
16974;DHT22;8603;46.944;7.412;2022-09-27T20:29:59;10.40;99.90
16974;DHT22;8603;46.944;7.412;2022-09-27T20:32:28;10.50;99.90
16974;DHT22;8603;46.944;7.412;2022-09-27T20:34:54;10.40;99.90
16974;DHT22;8603;46.944;7.412;2022-09-27T20:37:25;10.40;99.90
16974;DHT22;8603;46.944;7.412;2022-09-27T20:39:56;10.40;99.90
16974;DHT22;8603;46.944;7.412;2022-09-27T20:42:34;10.50;99.90
16974;DHT22;8603;46.944;7.412;2022-09-27T20:45:00;10.50;99.90
16974;DHT22;8603;46.944;7.412;2022-09-27T20:47:29;10.60;99.90
16974;DHT22;8603;46.944;7.412;2022-09-27T20:49:55;10.60;99.90
16974;DHT22;8603;46.944;7.412;2022-09-27T20:52:21;10.60;99.90
16974;DHT22;8603;46.944;7.412;2022-09-27T20:54:46;10.60;99.90
16974;DHT22;8603;46.944;7.412;2022-09-27T20:57:28;10.60;99.90
16974;DHT22;8603;46.944;7.412;2022-09-27T20:59:53;10.60;99.90
16974;DHT22;8603;46.944;7.412;2022-09-27T21:05:41;10.70;99.90
16974;DHT22;8603;46.944;7.412;2022-09-27T21:08:29;10.70;99.90
16974;DHT22;8603;46.944;7.412;2022-09-27T21:11:12;10.70;99.90
16974;DHT22;8603;46.944;7.412;2022-09-27T21:19:48;10.80;99.90
16974;DHT22;8603;46.944;7.412;2022-09-27T21:24:49;10.80;99.90
16974;DHT22;8603;46.944;7.412;2022-09-27T21:27:15;10.80;99.90
16974;DHT22;8603;46.944;7.412;2022-09-27T21:29:41;10.80;99.90
16974;DHT22;8603;46.944;7.412;2022-09-27T21:32:06;10.70;99.90
16974;DHT22;8603;46.944;7.412;2022-09-27T21:34:32;10.60;99.90
16974;DHT22;8603;46.944;7.412;2022-09-27T21:36:58;10.60;99.90
16974;DHT22;8603;46.944;7.412;2022-09-27T21:39:41;10.60;99.90
16974;DHT22;8603;46.944;7.412;2022-09-27T21:42:09;10.50;99.90
16974;DHT22;8603;46.944;7.412;2022-09-27T21:44:42;10.30;99.90
16974;DHT22;8603;46.944;7.412;2022-09-27T21:47:36;10.30;99.90
16974;DHT22;8603;46.944;7.412;2022-09-27T21:50:50;10.10;99.90
16974;DHT22;8603;46.944;7.412;2022-09-27T21:53:34;10.10;99.90
16974;DHT22;8603;46.944;7.412;2022-09-27T21:56:02;9.90;99.90
16974;DHT22;8603;46.944;7.412;2022-09-27T21:59:03;10.00;99.90
16974;DHT22;8603;46.944;7.412;2022-09-27T22:01:44;10.00;99.90
16974;DHT22;8603;46.944;7.412;2022-09-27T22:04:29;9.80;99.90
16974;DHT22;8603;46.944;7.412;2022-09-27T22:07:00;9.80;99.90
16974;DHT22;8603;46.944;7.412;2022-09-27T22:09:38;9.90;99.90
16974;DHT22;8603;46.944;7.412;2022-09-27T22:12:33;9.80;99.90
16974;DHT22;8603;46.944;7.412;2022-09-27T22:15:05;9.80;99.90
16974;DHT22;8603;46.944;7.412;2022-09-27T22:17:31;9.70;99.90
16974;DHT22;8603;46.944;7.412;2022-09-27T22:19:58;9.60;99.90
16974;DHT22;8603;46.944;7.412;2022-09-27T22:22:24;9.80;99.90
16974;DHT22;8603;46.944;7.412;2022-09-27T22:25:00;9.70;99.90
16974;DHT22;8603;46.944;7.412;2022-09-27T22:27:42;9.70;99.90
16974;DHT22;8603;46.944;7.412;2022-09-27T22:30:11;9.70;99.90
16974;DHT22;8603;46.944;7.412;2022-09-27T22:33:04;9.60;99.90
16974;DHT22;8603;46.944;7.412;2022-09-27T22:35:56;9.70;99.90
16974;DHT22;8603;46.944;7.412;2022-09-27T22:41:39;9.70;99.90
16974;DHT22;8603;46.944;7.412;2022-09-27T22:44:05;9.60;99.90
16974;DHT22;8603;46.944;7.412;2022-09-27T22:46:31;9.70;99.90
16974;DHT22;8603;46.944;7.412;2022-09-27T22:49:09;9.80;99.90
16974;DHT22;8603;46.944;7.412;2022-09-27T22:54:39;9.90;99.90
16974;DHT22;8603;46.944;7.412;2022-09-27T22:57:05;10.00;99.90
16974;DHT22;8603;46.944;7.412;2022-09-27T22:59:33;10.00;99.90
16974;DHT22;8603;46.944;7.412;2022-09-27T23:02:02;10.00;99.90
16974;DHT22;8603;46.944;7.412;2022-09-27T23:04:39;10.00;99.90
16974;DHT22;8603;46.944;7.412;2022-09-27T23:07:12;10.10;99.90
16974;DHT22;8603;46.944;7.412;2022-09-27T23:09:38;10.10;99.90
16974;DHT22;8603;46.944;7.412;2022-09-27T23:12:06;10.10;99.90
16974;DHT22;8603;46.944;7.412;2022-09-27T23:14:32;10.10;99.90
16974;DHT22;8603;46.944;7.412;2022-09-27T23:16:58;10.20;99.90
16974;DHT22;8603;46.944;7.412;2022-09-27T23:19:38;10.20;99.90
16974;DHT22;8603;46.944;7.412;2022-09-27T23:22:05;10.20;99.90